Time;durP1;ratioP1;P1;durP2;ratioP2;P2;SDS_P1;SDS_P2;PMS_P1;PMS_P2;Temp;Humidity;BMP_temperature;BMP_pressure;BME280_temperature;BME280_humidity;BME280_pressure;Samples;Min_cycle;Max_cycle;Signal;HPM_P1;HPM_P2
2022/04/02 00:02:17;;;;;;;;;;;;;;;11.30;80.72;98126.72;4973142;28;811;-59
2022/04/02 00:04:43;;;;;;;;;;;;;;;11.25;81.13;98119.78;4973321;28;1879;-59
2022/04/02 00:07:10;;;;;;;;;;;;;;;11.14;81.07;98124.91;4973053;28;811;-59
2022/04/02 00:09:37;;;;;;;;;;;;;;;11.02;81.75;98132.00;4972986;28;971;-59
2022/04/02 00:12:04;;;;;;;;;;;;;;;10.87;81.18;98120.66;4972728;28;847;-59
2022/04/02 00:14:30;;;;;;;;;;;;;;;10.71;82.33;98120.78;4972934;28;882;-59
2022/04/02 00:16:57;;;;;;;;;;;;;;;10.84;83.88;98118.78;4972964;28;827;-59
2022/04/02 00:19:24;;;;;;;;;;;;;;;11.53;83.27;98120.00;4972901;28;831;-59
2022/04/02 00:21:51;;;;;;;;;;;;;;;12.05;81.42;98127.59;4972823;28;815;-58
2022/04/02 00:24:17;;;;;;;;;;;;;;;12.25;80.07;98116.16;4972713;28;1947;-59
2022/04/02 00:26:44;;;;;;;;;;;;;;;12.15;79.31;98111.03;4972796;28;919;-59
2022/04/02 00:29:11;;;;;;;;;;;;;;;11.95;79.10;98106.63;4972790;28;820;-59
2022/04/02 00:31:37;;;;;;;;;;;;;;;11.78;79.72;98094.97;4972587;28;1302;-59
2022/04/02 00:34:03;;;;;;;;;;;;;;;11.61;79.66;98099.16;4972929;28;937;-59
2022/04/02 00:36:34;;;;;;;;;;;;;;;11.60;80.66;98090.06;4972942;28;800;-59
2022/04/02 00:39:01;;;;;;;;;;;;;;;11.57;80.41;98095.75;4972709;28;910;-59
2022/04/02 00:41:28;;;;;;;;;;;;;;;11.35;80.69;98106.78;4972499;28;808;-59
2022/04/02 00:43:59;;;;;;;;;;;;;;;11.17;81.26;98122.00;4972490;28;1915;-59
2022/04/02 00:46:26;;;;;;;;;;;;;;;11.13;81.56;98120.59;4972546;28;881;-59
2022/04/02 00:48:54;;;;;;;;;;;;;;;11.16;81.76;98125.19;4972612;28;804;-59
2022/04/02 00:51:21;;;;;;;;;;;;;;;11.27;81.40;98117.34;4972919;28;934;-59
2022/04/02 00:53:48;;;;;;;;;;;;;;;11.40;81.41;98131.88;4976342;28;895;-59
2022/04/02 00:56:15;;;;;;;;;;;;;;;11.56;81.17;98127.38;4976421;28;883;-59
2022/04/02 00:58:42;;;;;;;;;;;;;;;11.64;81.06;98126.69;4976292;28;843;-59
2022/04/02 01:01:09;;;;;;;;;;;;;;;11.64;80.34;98123.91;4976354;28;870;-59
2022/04/02 01:03:36;;;;;;;;;;;;;;;11.63;80.64;98130.69;4976261;28;1949;-59
2022/04/02 01:06:03;;;;;;;;;;;;;;;11.65;80.69;98130.25;4976204;28;783;-59
2022/04/02 01:08:30;;;;;;;;;;;;;;;11.63;80.62;98136.22;4976205;28;847;-59
2022/04/02 01:10:57;;;;;;;;;;;;;;;11.60;80.38;98126.03;4976098;28;863;-59
2022/04/02 01:13:25;;;;;;;;;;;;;;;11.54;80.41;98110.47;4958682;28;1277;-58
2022/04/02 01:15:52;;;;;;;;;;;;;;;11.28;80.48;98110.56;4976063;28;851;-59
2022/04/02 01:18:18;;;;;;;;;;;;;;;10.91;82.27;98093.66;4976002;28;973;-59
2022/04/02 01:20:44;;;;;;;;;;;;;;;10.64;82.55;98110.72;4975943;28;836;-59
2022/04/02 01:23:11;;;;;;;;;;;;;;;10.47;83.72;98112.06;4975929;28;1898;-59
2022/04/02 01:25:38;;;;;;;;;;;;;;;10.37;85.01;98102.91;4975909;28;866;-59
2022/04/02 01:28:05;;;;;;;;;;;;;;;10.36;86.05;98093.84;4975933;28;857;-59
2022/04/02 01:30:32;;;;;;;;;;;;;;;10.44;86.32;98097.16;4975600;28;1244;-59
2022/04/02 01:32:59;;;;;;;;;;;;;;;10.52;86.33;98103.22;4975779;28;882;-59
2022/04/02 01:35:26;;;;;;;;;;;;;;;10.53;86.05;98105.53;4975591;28;927;-59
2022/04/02 01:37:53;;;;;;;;;;;;;;;10.65;86.48;98112.28;4975624;28;923;-59
2022/04/02 01:40:20;;;;;;;;;;;;;;;10.86;85.65;98112.78;4975523;28;811;-59
2022/04/02 01:42:47;;;;;;;;;;;;;;;10.93;85.24;98110.56;4975515;28;1919;-59
2022/04/02 01:45:15;;;;;;;;;;;;;;;10.82;85.01;98101.88;4975545;28;823;-59
2022/04/02 01:47:42;;;;;;;;;;;;;;;10.54;85.21;98104.34;4975780;28;835;-59
2022/04/02 01:50:10;;;;;;;;;;;;;;;10.27;85.59;98101.22;4975449;28;873;-59
2022/04/02 01:52:37;;;;;;;;;;;;;;;10.08;86.40;98100.22;4975429;28;823;-59
2022/04/02 01:55:03;;;;;;;;;;;;;;;10.12;86.37;98100.91;4975352;28;858;-59
2022/04/02 01:57:30;;;;;;;;;;;;;;;10.30;86.67;98120.47;4975281;28;903;-59
2022/04/02 01:59:57;;;;;;;;;;;;;;;10.70;86.85;98125.53;4975498;28;863;-59
2022/04/02 02:02:23;;;;;;;;;;;;;;;11.00;86.76;98113.09;4975514;28;835;-59
2022/04/02 02:04:50;;;;;;;;;;;;;;;11.00;86.06;98112.31;4974177;28;1882;-59
2022/04/02 02:07:16;;;;;;;;;;;;;;;11.06;86.81;98113.31;4975103;28;843;-59
2022/04/02 02:09:43;;;;;;;;;;;;;;;11.10;86.45;98116.72;4975016;28;851;-59
2022/04/02 02:12:10;;;;;;;;;;;;;;;11.17;86.45;98110.94;4975025;28;890;-59
2022/04/02 02:14:37;;;;;;;;;;;;;;;11.23;87.26;98119.44;4975292;28;882;-59
2022/04/02 02:17:04;;;;;;;;;;;;;;;11.05;86.89;98111.75;4974905;28;890;-59
2022/04/02 02:19:31;;;;;;;;;;;;;;;10.95;87.42;98115.66;4974934;28;816;-59
2022/04/02 02:21:57;;;;;;;;;;;;;;;10.89;88.20;98112.69;4974856;28;871;-59
2022/04/02 02:24:24;;;;;;;;;;;;;;;10.88;88.78;98102.84;4974675;28;1886;-59
2022/04/02 02:26:50;;;;;;;;;;;;;;;10.80;88.61;98107.84;4974772;28;856;-59
2022/04/02 02:29:17;;;;;;;;;;;;;;;10.68;89.03;98100.34;4974768;28;866;-59
2022/04/02 02:31:44;;;;;;;;;;;;;;;10.65;90.55;98104.00;4974501;28;1390;-59
2022/04/02 02:36:55;;;;;;;;;;;;;;;10.80;89.68;98107.84;4974678;28;775;-59
2022/04/02 02:39:22;;;;;;;;;;;;;;;10.80;90.14;98112.59;4974596;28;834;-59
2022/04/02 02:41:49;;;;;;;;;;;;;;;10.71;89.82;98118.81;4974790;28;859;-59
2022/04/02 02:44:16;;;;;;;;;;;;;;;10.62;90.12;98110.41;4974582;28;1915;-59
2022/04/02 02:46:41;;;;;;;;;;;;;;;10.53;90.65;98116.59;4974624;28;855;-59
2022/04/02 02:49:08;;;;;;;;;;;;;;;10.55;91.29;98121.69;4974722;28;819;-59
2022/04/02 02:51:35;;;;;;;;;;;;;;;10.56;90.88;98120.47;4974380;28;799;-59
2022/04/02 02:54:01;;;;;;;;;;;;;;;10.55;91.03;98110.63;4974897;28;748;-59
2022/04/02 02:56:28;;;;;;;;;;;;;;;10.43;90.58;98114.94;4974177;28;843;-59
2022/04/02 02:58:54;;;;;;;;;;;;;;;10.25;90.60;98117.47;4974183;28;874;-59
2022/04/02 03:01:21;;;;;;;;;;;;;;;10.10;91.25;98119.88;4974212;28;819;-59
2022/04/02 03:03:47;;;;;;;;;;;;;;;10.04;91.77;98111.38;4974065;28;1887;-59
2022/04/02 03:06:14;;;;;;;;;;;;;;;9.97;92.09;98111.59;4974062;28;874;-59
2022/04/02 03:08:41;;;;;;;;;;;;;;;9.89;92.21;98115.75;4973916;28;812;-59
2022/04/02 03:11:08;;;;;;;;;;;;;;;9.81;92.68;98117.94;4973930;28;819;-59
2022/04/02 03:13:36;;;;;;;;;;;;;;;9.87;93.64;98126.47;4973903;28;823;-59
2022/04/02 03:16:03;;;;;;;;;;;;;;;9.90;93.58;98128.34;4973978;28;866;-59
2022/04/02 03:18:30;;;;;;;;;;;;;;;9.95;93.50;98133.31;4973784;28;834;-59
2022/04/02 03:20:57;;;;;;;;;;;;;;;10.21;94.75;98143.19;4974065;28;843;-59
2022/04/02 03:23:24;;;;;;;;;;;;;;;10.58;94.20;98142.88;4973610;28;1878;-59
2022/04/02 03:25:50;;;;;;;;;;;;;;;10.86;93.27;98148.72;4973696;28;886;-59
2022/04/02 03:28:16;;;;;;;;;;;;;;;11.01;92.07;98139.53;4973634;28;791;-59
2022/04/02 03:30:43;;;;;;;;;;;;;;;10.90;91.71;98147.38;4973349;28;1291;-59
2022/04/02 03:33:10;;;;;;;;;;;;;;;10.83;91.73;98153.16;4973588;28;878;-59
2022/04/02 03:35:37;;;;;;;;;;;;;;;10.72;91.61;98149.97;4973551;28;803;-59
2022/04/02 03:38:03;;;;;;;;;;;;;;;10.73;92.00;98157.81;4973350;28;839;-59
2022/04/02 03:40:30;;;;;;;;;;;;;;;10.85;91.82;98161.00;4973478;28;816;-59
2022/04/02 03:42:58;;;;;;;;;;;;;;;10.98;91.07;98170.81;4973278;28;1911;-59
2022/04/02 03:45:24;;;;;;;;;;;;;;;11.07;90.40;98177.66;4973351;28;811;-59
2022/04/02 03:47:51;;;;;;;;;;;;;;;11.09;90.38;98178.00;4973565;28;819;-59
2022/04/02 03:50:17;;;;;;;;;;;;;;;11.14;90.23;98188.50;4973251;28;851;-59
2022/04/02 03:52:44;;;;;;;;;;;;;;;11.18;89.63;98186.38;4973164;28;859;-59
2022/04/02 03:55:11;;;;;;;;;;;;;;;11.23;89.72;98203.19;4955759;28;1174;-59
2022/04/02 03:57:39;;;;;;;;;;;;;;;11.20;89.27;98193.03;4973179;28;820;-59
2022/04/02 04:00:08;;;;;;;;;;;;;;;11.10;89.17;98196.13;4973058;28;864;-58
2022/04/02 04:02:37;;;;;;;;;;;;;;;11.05;89.69;98194.69;4973089;28;796;-59
2022/04/02 04:05:06;;;;;;;;;;;;;;;11.04;89.48;98188.38;4972935;28;1953;-60
2022/04/02 04:07:32;;;;;;;;;;;;;;;10.92;89.47;98203.00;4972986;28;954;-60
2022/04/02 04:09:58;;;;;;;;;;;;;;;10.85;89.68;98210.75;4973386;28;839;-60
2022/04/02 04:12:24;;;;;;;;;;;;;;;10.77;89.51;98213.72;4972949;28;815;-60
2022/04/02 04:14:51;;;;;;;;;;;;;;;10.71;89.99;98215.50;4973196;28;846;-60
2022/04/02 04:17:17;;;;;;;;;;;;;;;10.85;89.93;98219.03;4972869;28;808;-60
2022/04/02 04:19:45;;;;;;;;;;;;;;;10.92;89.67;98218.81;4972913;28;1040;-60
2022/04/02 04:22:12;;;;;;;;;;;;;;;10.89;88.93;98220.47;4972820;28;811;-59
2022/04/02 04:24:38;;;;;;;;;;;;;;;10.91;89.14;98218.03;4972855;28;1957;-60
2022/04/02 04:27:05;;;;;;;;;;;;;;;10.98;89.07;98215.03;4972535;28;874;-60
2022/04/02 04:29:32;;;;;;;;;;;;;;;11.05;89.22;98219.56;4973059;28;874;-60
2022/04/02 04:31:59;;;;;;;;;;;;;;;11.10;88.96;98221.78;4972495;28;1274;-60
2022/04/02 04:34:25;;;;;;;;;;;;;;;11.18;88.10;98223.13;4972743;28;843;-60
2022/04/02 04:36:52;;;;;;;;;;;;;;;11.26;87.69;98225.63;4972853;28;791;-60
2022/04/02 04:39:19;;;;;;;;;;;;;;;11.48;87.31;98234.78;4972631;28;819;-60
2022/04/02 04:41:46;;;;;;;;;;;;;;;11.71;86.20;98232.81;4972996;28;886;-60
2022/04/02 04:44:12;;;;;;;;;;;;;;;11.82;85.46;98235.97;4972540;28;1922;-60
2022/04/02 04:46:39;;;;;;;;;;;;;;;11.87;84.46;98240.97;4972586;28;886;-60
2022/04/02 04:49:09;;;;;;;;;;;;;;;12.00;84.22;98246.47;4972626;28;832;-60
2022/04/02 04:51:35;;;;;;;;;;;;;;;12.18;83.26;98254.13;4972542;28;910;-60
2022/04/02 04:54:02;;;;;;;;;;;;;;;12.45;82.30;98253.53;4972835;28;851;-60
2022/04/02 04:56:28;;;;;;;;;;;;;;;12.66;80.77;98260.28;4972501;28;819;-60
2022/04/02 04:58:55;;;;;;;;;;;;;;;12.85;79.08;98258.38;4972472;28;946;-60
2022/04/02 05:01:22;;;;;;;;;;;;;;;13.14;78.88;98268.34;4972509;28;882;-60
2022/04/02 05:03:48;;;;;;;;;;;;;;;13.39;77.01;98264.59;4972370;28;1895;-60
2022/04/02 05:06:16;;;;;;;;;;;;;;;13.21;76.96;98271.59;4972369;28;870;-60
2022/04/02 05:08:42;;;;;;;;;;;;;;;13.16;77.33;98263.09;4955578;28;831;-60
2022/04/02 05:11:10;;;;;;;;;;;;;;;13.28;77.02;98263.00;4972452;28;898;-60
2022/04/02 05:13:39;;;;;;;;;;;;;;;13.60;75.96;98269.25;4972461;28;866;-60
2022/04/02 05:16:05;;;;;;;;;;;;;;;13.80;74.80;98277.13;4972391;28;842;-60
2022/04/02 05:18:32;;;;;;;;;;;;;;;13.97;73.26;98268.50;4972561;28;803;-60
2022/04/02 05:20:59;;;;;;;;;;;;;;;13.99;72.30;98277.91;4972355;28;887;-59
2022/04/02 05:23:27;;;;;;;;;;;;;;;14.23;71.73;98289.19;4972179;28;1957;-60
2022/04/02 05:25:53;;;;;;;;;;;;;;;14.35;70.62;98281.16;4972343;28;902;-60
2022/04/02 05:28:20;;;;;;;;;;;;;;;14.54;69.46;98293.78;4972252;28;847;-59
2022/04/02 05:30:47;;;;;;;;;;;;;;;14.64;69.31;98289.78;4971914;28;1452;-60
2022/04/02 05:33:12;;;;;;;;;;;;;;;14.70;69.04;98295.47;4972268;28;807;-60
2022/04/02 05:35:39;;;;;;;;;;;;;;;15.03;67.82;98301.09;4972078;28;983;-60
2022/04/02 05:38:06;;;;;;;;;;;;;;;15.32;66.90;98300.53;4972175;28;866;-59
2022/04/02 05:40:36;;;;;;;;;;;;;;;15.43;65.65;98293.66;4975483;28;886;-60
2022/04/02 05:43:03;;;;;;;;;;;;;;;15.62;65.35;98297.88;4958192;28;1994;-60
2022/04/02 05:45:30;;;;;;;;;;;;;;;15.77;64.67;98309.13;4975798;28;886;-60
2022/04/02 05:47:57;;;;;;;;;;;;;;;15.95;63.56;98299.84;4975723;28;883;-59
2022/04/02 05:50:25;;;;;;;;;;;;;;;16.12;63.67;98314.13;4975439;28;862;-60
2022/04/02 05:52:53;;;;;;;;;;;;;;;16.57;62.14;98312.19;4975320;28;963;-59
2022/04/02 05:55:19;;;;;;;;;;;;;;;16.41;62.19;98321.00;4975798;28;855;-60
2022/04/02 05:57:47;;;;;;;;;;;;;;;16.35;61.54;98314.56;4975233;28;930;-59
2022/04/02 06:00:16;;;;;;;;;;;;;;;16.29;61.23;98314.47;4976220;28;756;-59
2022/04/02 06:02:44;;;;;;;;;;;;;;;16.43;61.86;98335.25;4975312;28;916;-59
2022/04/02 06:05:11;;;;;;;;;;;;;;;16.67;60.83;98324.78;4975135;28;1886;-59
2022/04/02 06:07:38;;;;;;;;;;;;;;;16.97;60.19;98322.03;4975041;28;954;-59
2022/04/02 06:10:05;;;;;;;;;;;;;;;16.96;60.40;98325.31;4975173;28;887;-59
2022/04/02 06:12:31;;;;;;;;;;;;;;;16.73;59.86;98324.91;4975094;28;815;-59
2022/04/02 06:14:57;;;;;;;;;;;;;;;16.79;60.13;98323.00;4975393;28;811;-59
2022/04/02 06:17:25;;;;;;;;;;;;;;;16.84;60.29;98333.50;4975222;28;804;-59
2022/04/02 06:19:52;;;;;;;;;;;;;;;17.17;60.70;98334.53;4975187;28;871;-59
2022/04/02 06:22:19;;;;;;;;;;;;;;;17.24;58.89;98332.13;4975057;28;796;-59
2022/04/02 06:24:46;;;;;;;;;;;;;;;17.65;58.37;98335.00;4975104;28;1886;-59
2022/04/02 06:27:13;;;;;;;;;;;;;;;17.78;57.41;98343.06;4974821;28;947;-59
2022/04/02 06:29:40;;;;;;;;;;;;;;;17.98;56.34;98349.94;4974914;28;832;-59
2022/04/02 06:32:07;;;;;;;;;;;;;;;18.50;55.40;98342.44;4974704;28;1194;-59
2022/04/02 06:34:34;;;;;;;;;;;;;;;18.75;54.71;98345.72;4974702;28;820;-59
2022/04/02 06:37:00;;;;;;;;;;;;;;;18.63;53.51;98332.91;4974746;28;927;-59
2022/04/02 06:39:27;;;;;;;;;;;;;;;18.42;53.68;98343.38;4974716;28;828;-59
2022/04/02 06:41:54;;;;;;;;;;;;;;;18.67;53.59;98348.22;4957442;28;1623;-58
2022/04/02 06:44:20;;;;;;;;;;;;;;;18.64;52.21;98349.19;4974861;28;1907;-58
2022/04/02 06:46:47;;;;;;;;;;;;;;;18.94;51.67;98349.00;4974812;28;875;-59
2022/04/02 06:49:14;;;;;;;;;;;;;;;19.27;51.63;98348.53;4974064;28;815;-59
2022/04/02 06:51:40;;;;;;;;;;;;;;;19.28;51.18;98341.63;4974724;28;752;-58
2022/04/02 06:54:07;;;;;;;;;;;;;;;19.05;51.24;98351.88;4974436;28;943;-58
2022/04/02 06:56:33;;;;;;;;;;;;;;;19.23;50.97;98339.56;4974502;28;910;-58
2022/04/02 06:59:00;;;;;;;;;;;;;;;19.20;50.99;98337.75;4974122;28;950;-58
2022/04/02 07:01:26;;;;;;;;;;;;;;;19.52;50.43;98349.72;4974083;28;908;-58
2022/04/02 07:03:53;;;;;;;;;;;;;;;19.75;49.04;98356.25;4973981;28;1949;-59
2022/04/02 07:06:20;;;;;;;;;;;;;;;19.48;48.87;98351.19;4973989;28;930;-59
2022/04/02 07:08:46;;;;;;;;;;;;;;;19.12;50.31;98345.09;4974034;28;882;-59
2022/04/02 07:11:13;;;;;;;;;;;;;;;18.90;50.40;98346.41;4973833;28;895;-59
2022/04/02 07:13:40;;;;;;;;;;;;;;;19.09;49.18;98351.66;4973961;28;862;-58
2022/04/02 07:16:06;;;;;;;;;;;;;;;19.29;48.21;98357.19;4974021;28;808;-58
2022/04/02 07:18:35;;;;;;;;;;;;;;;19.79;47.98;98376.41;4973896;28;827;-59
2022/04/02 07:21:02;;;;;;;;;;;;;;;20.07;47.24;98373.00;4973733;28;979;-58
2022/04/02 07:23:29;;;;;;;;;;;;;;;20.34;47.01;98365.22;4973640;28;1972;-59
2022/04/02 07:25:57;;;;;;;;;;;;;;;20.37;46.08;98364.19;4973799;28;847;-58
2022/04/02 07:28:25;;;;;;;;;;;;;;;20.23;46.65;98356.72;4973780;28;865;-58
2022/04/02 07:30:52;;;;;;;;;;;;;;;20.25;46.24;98349.38;4952878;29;1197;-58
2022/04/02 07:33:19;;;;;;;;;;;;;;;20.48;45.56;98344.59;4954232;28;803;-58
2022/04/02 07:36:08;;;;;;;;;;;;;;;20.39;44.65;98348.38;4952957;29;1279;-58
2022/04/02 07:38:35;;;;;;;;;;;;;;;20.29;46.44;98344.28;4954225;28;1750;-58
2022/04/02 07:41:14;;;;;;;;;;;;;;;20.51;45.49;98356.84;4954513;28;800;-58
2022/04/02 07:43:42;;;;;;;;;;;;;;;20.66;45.36;98359.47;4954097;28;1914;-58
2022/04/02 07:46:13;;;;;;;;;;;;;;;20.99;45.67;98365.16;4954273;28;815;-58
2022/04/02 07:48:39;;;;;;;;;;;;;;;20.68;43.87;98362.53;4954104;28;851;-58
2022/04/02 07:51:10;;;;;;;;;;;;;;;20.64;44.51;98353.59;4954017;28;823;-58
2022/04/02 07:53:42;;;;;;;;;;;;;;;20.54;43.51;98364.25;4954030;28;1237;-58
2022/04/02 07:56:12;;;;;;;;;;;;;;;20.85;41.73;98352.09;4953931;28;894;-58
2022/04/02 07:58:42;;;;;;;;;;;;;;;21.54;42.10;98345.22;4954068;28;808;-58
2022/04/02 08:01:12;;;;;;;;;;;;;;;21.46;40.64;98349.84;4953171;28;846;-58
2022/04/02 08:03:42;;;;;;;;;;;;;;;20.80;42.39;98352.84;4953868;28;1903;-58
2022/04/02 08:06:09;;;;;;;;;;;;;;;20.87;42.45;98349.56;4953833;28;831;-58
2022/04/02 08:08:36;;;;;;;;;;;;;;;20.33;43.46;98355.25;4953671;28;863;-58
2022/04/02 08:11:03;;;;;;;;;;;;;;;20.30;43.26;98348.63;4953779;28;824;-58
2022/04/02 08:13:30;;;;;;;;;;;;;;;20.38;42.07;98351.72;4953916;28;903;-58
2022/04/02 08:15:57;;;;;;;;;;;;;;;19.78;44.10;98349.66;4953693;28;875;-58
2022/04/02 08:18:26;;;;;;;;;;;;;;;20.22;45.00;98350.38;4953934;28;839;-58
2022/04/02 08:20:52;;;;;;;;;;;;;;;20.33;42.27;98349.63;4953627;28;855;-58
2022/04/02 08:23:19;;;;;;;;;;;;;;;20.53;43.08;98341.03;4953428;28;1895;-59
2022/04/02 08:26:12;;;;;;;;;;;;;;;20.69;41.71;98338.81;4952372;29;847;-60
2022/04/02 08:28:47;;;;;;;;;;;;;;;20.54;42.23;98350.22;4938547;28;1194;-59
2022/04/02 08:31:34;;;;;;;;;;;;;;;19.90;43.12;98346.91;4963983;28;1269;-58
2022/04/02 08:34:10;;;;;;;;;;;;;;;19.77;43.65;98342.50;4923833;28;1416;-59
2022/04/02 08:36:47;;;;;;;;;;;;;;;20.06;41.70;98337.06;4972741;28;860;-59
2022/04/02 08:39:17;;;;;;;;;;;;;;;19.95;41.25;98354.56;4972762;28;870;-59
2022/04/02 08:42:03;;;;;;;;;;;;;;;19.50;42.70;98345.88;4972673;28;862;-59
2022/04/02 08:44:48;;;;;;;;;;;;;;;19.49;42.76;98339.50;4972595;28;1907;-59
2022/04/02 08:47:42;;;;;;;;;;;;;;;20.58;40.18;98323.47;4955517;28;811;-59
2022/04/02 08:50:13;;;;;;;;;;;;;;;21.31;39.40;98317.13;4955521;28;811;-59
2022/04/02 08:52:51;;;;;;;;;;;;;;;21.65;36.99;98319.16;4972554;28;874;-59
2022/04/02 08:55:23;;;;;;;;;;;;;;;21.66;36.88;98306.59;4972492;28;864;-59
2022/04/02 08:57:53;;;;;;;;;;;;;;;21.55;35.90;98308.19;4972431;28;947;-59
2022/04/02 09:00:24;;;;;;;;;;;;;;;21.58;35.17;98312.75;4972579;28;850;-59
2022/04/02 09:02:57;;;;;;;;;;;;;;;21.87;36.29;98316.28;4972314;28;899;-59
2022/04/02 09:05:42;;;;;;;;;;;;;;;22.17;34.87;98315.66;4972859;28;795;-59
2022/04/02 09:08:27;;;;;;;;;;;;;;;22.15;33.28;98315.41;4972447;28;796;-59
2022/04/02 09:11:13;;;;;;;;;;;;;;;22.16;33.60;98314.13;4972520;28;844;-59
2022/04/02 09:13:40;;;;;;;;;;;;;;;21.54;35.68;98334.00;4974618;28;945;-59
2022/04/02 09:16:09;;;;;;;;;;;;;;;21.40;34.75;98328.13;4976356;28;776;-59
2022/04/02 09:18:39;;;;;;;;;;;;;;;21.55;34.58;98324.25;4975939;28;1184;-59
2022/04/02 09:21:21;;;;;;;;;;;;;;;21.32;35.20;98318.66;4975934;28;912;-59
2022/04/02 09:24:00;;;;;;;;;;;;;;;21.29;34.14;98308.44;4975969;28;1895;-59
2022/04/02 09:27:02;;;;;;;;;;;;;;;21.19;33.06;98324.81;4975953;28;843;-59
2022/04/02 09:29:37;;;;;;;;;;;;;;;21.00;34.99;98330.16;4878739;29;1100;-60
2022/04/02 09:32:30;;;;;;;;;;;;;;;21.14;34.98;98324.78;4945093;28;1438;-59
2022/04/02 09:35:06;;;;;;;;;;;;;;;21.20;35.01;98325.56;4954767;29;1618;-60
2022/04/02 09:37:33;;;;;;;;;;;;;;;21.49;35.69;98329.91;4956402;28;819;-60
2022/04/02 09:40:09;;;;;;;;;;;;;;;21.67;30.58;98316.59;4956395;28;823;-59
2022/04/02 09:42:43;;;;;;;;;;;;;;;21.29;32.01;98324.53;4956282;28;935;-59
2022/04/02 09:45:12;;;;;;;;;;;;;;;21.24;33.23;98323.25;4956214;28;1971;-59
2022/04/02 09:47:39;;;;;;;;;;;;;;;21.29;32.49;98322.47;4956172;28;1129;-59
2022/04/02 09:50:09;;;;;;;;;;;;;;;21.45;32.09;98303.34;4956200;28;804;-60
2022/04/02 09:52:43;;;;;;;;;;;;;;;21.43;34.14;98320.72;4956346;28;800;-59
2022/04/02 09:55:11;;;;;;;;;;;;;;;21.51;32.17;98318.16;4956093;28;820;-59
2022/04/02 10:26:10;;;;;;;;;;;;;;;22.48;30.16;98300.41;5216025;23;1681;-59
2022/04/02 10:28:59;;;;;;;;;;;;;;;22.66;29.55;98273.69;4974863;28;827;-60
2022/04/02 10:31:37;;;;;;;;;;;;;;;22.33;29.67;98302.81;4962217;28;1629;-58
2022/04/02 10:34:22;;;;;;;;;;;;;;;22.11;32.08;98295.22;4974600;28;921;-58
2022/04/02 10:36:54;;;;;;;;;;;;;;;22.59;31.38;98291.88;4974769;28;830;-58
2022/04/02 10:39:24;;;;;;;;;;;;;;;23.10;31.03;98277.44;4974668;28;871;-58
2022/04/02 10:41:56;;;;;;;;;;;;;;;23.18;30.65;98286.09;4957226;28;1499;-58
2022/04/02 10:44:41;;;;;;;;;;;;;;;22.95;29.73;98302.41;4974454;28;1973;-58
2022/04/02 10:47:11;;;;;;;;;;;;;;;22.49;31.09;98306.81;4974526;28;882;-58
2022/04/02 10:49:39;;;;;;;;;;;;;;;21.89;29.24;98296.84;4974365;28;925;-58
2022/04/02 10:52:10;;;;;;;;;;;;;;;20.93;31.59;98304.63;4974415;28;791;-58
2022/04/02 10:54:36;;;;;;;;;;;;;;;;;;4974695;28;819;-58
2022/04/02 10:57:04;;;;;;;;;;;;;;;20.06;31.06;98290.16;4974546;28;831;-60
2022/04/02 10:59:32;;;;;;;;;;;;;;;20.01;31.32;98281.69;4957039;28;1362;-58
2022/04/02 11:02:00;;;;;;;;;;;;;;;20.09;32.02;98289.13;4974091;28;879;-58
2022/04/02 11:04:43;;;;;;;;;;;;;;;20.08;32.21;98293.22;4974215;28;1910;-60
2022/04/02 11:07:09;;;;;;;;;;;;;;;20.14;32.25;98288.38;4974104;28;799;-60
2022/04/02 11:09:39;;;;;;;;;;;;;;;20.38;32.20;98296.34;4974075;28;807;-60
2022/04/02 11:12:17;;;;;;;;;;;;;;;20.43;31.26;98291.25;4974153;28;971;-60
2022/04/02 11:14:46;;;;;;;;;;;;;;;20.46;31.23;98285.41;4973913;28;1050;-59
2022/04/02 11:17:33;;;;;;;;;;;;;;;20.57;31.37;98279.84;4974121;28;836;-60
2022/04/02 11:20:04;;;;;;;;;;;;;;;20.69;31.04;98279.84;4973681;28;1294;-59
2022/04/02 11:22:36;;;;;;;;;;;;;;;20.75;30.93;98272.19;4973863;28;808;-59
2022/04/02 11:25:03;;;;;;;;;;;;;;;20.71;30.66;98261.22;4973986;28;1887;-58
2022/04/02 11:27:34;;;;;;;;;;;;;;;21.33;31.85;98268.84;4974025;28;807;-60
2022/04/02 11:30:03;;;;;;;;;;;;;;;21.87;30.85;98264.88;4973719;28;811;-60
2022/04/02 11:32:34;;;;;;;;;;;;;;;21.29;29.78;98262.72;4973628;28;898;-59
2022/04/02 11:35:06;;;;;;;;;;;;;;;20.67;29.89;98262.75;4973620;28;827;-59
2022/04/02 11:37:35;;;;;;;;;;;;;;;20.45;30.86;98267.03;4973485;28;867;-59
2022/04/02 11:40:08;;;;;;;;;;;;;;;20.81;30.68;98258.94;4973462;28;823;-60
2022/04/02 11:42:35;;;;;;;;;;;;;;;21.11;30.22;98256.34;4973434;28;823;-60
2022/04/02 11:45:07;;;;;;;;;;;;;;;21.23;29.73;98247.91;4973484;28;1969;-59
2022/04/02 11:47:35;;;;;;;;;;;;;;;21.52;30.68;98247.38;4973387;28;807;-59
2022/04/02 11:50:12;;;;;;;;;;;;;;;22.14;30.13;98247.09;4973322;28;875;-59
2022/04/02 11:52:52;;;;;;;;;;;;;;;21.93;29.81;98227.00;4973213;28;959;-60
2022/04/02 11:55:19;;;;;;;;;;;;;;;21.37;31.13;98239.19;4973289;28;898;-60
2022/04/02 11:57:58;;;;;;;;;;;;;;;21.07;31.44;98236.19;4973198;28;851;-60
2022/04/02 12:00:26;;;;;;;;;;;;;;;20.90;31.48;98236.22;4973514;28;791;-60
2022/04/02 12:02:53;;;;;;;;;;;;;;;20.85;31.69;98241.84;4973068;28;963;-60
2022/04/02 12:05:23;;;;;;;;;;;;;;;20.85;32.16;98230.59;4973015;28;1878;-60
2022/04/02 12:07:52;;;;;;;;;;;;;;;21.00;31.34;98242.34;4973000;28;1144;-60
2022/04/02 12:10:26;;;;;;;;;;;;;;;21.27;31.40;98220.31;4972974;28;867;-60
2022/04/02 12:12:54;;;;;;;;;;;;;;;21.08;31.52;98232.13;4955675;28;1491;-59
2022/04/02 12:15:21;;;;;;;;;;;;;;;21.07;32.51;98227.75;4972982;28;838;-59
2022/04/02 12:17:50;;;;;;;;;;;;;;;21.43;31.21;98211.13;4973012;28;783;-59
2022/04/02 12:20:37;;;;;;;;;;;;;;;21.30;31.56;98210.88;4972854;28;874;-59
2022/04/02 12:23:08;;;;;;;;;;;;;;;20.98;33.37;98226.00;4972739;28;859;-59
2022/04/02 12:25:36;;;;;;;;;;;;;;;20.66;33.53;98219.13;4973005;28;1156;-59
2022/04/02 12:28:12;;;;;;;;;;;;;;;20.36;34.45;98242.03;4972951;28;864;-59
2022/04/02 12:33:49;;;;;;;;;;;;;;;20.24;34.53;98210.38;4972890;28;672;-59
2022/04/02 12:36:17;;;;;;;;;;;;;;;20.16;34.57;98224.16;4972698;28;931;-59
2022/04/02 12:38:43;;;;;;;;;;;;;;;20.05;34.23;98238.13;4972760;28;894;-58
2022/04/02 12:41:20;;;;;;;;;;;;;;;19.93;33.52;98233.78;4972698;28;823;-59
2022/04/02 12:43:50;;;;;;;;;;;;;;;19.77;33.97;98213.56;4972968;28;1906;-59
2022/04/02 12:46:24;;;;;;;;;;;;;;;19.57;33.77;98242.50;4955326;28;1272;-59
2022/04/02 12:48:51;;;;;;;;;;;;;;;19.17;31.20;98254.75;4975292;28;914;-59
2022/04/02 12:51:19;;;;;;;;;;;;;;;18.54;35.05;98270.25;4976606;28;886;-59
2022/04/02 12:53:47;;;;;;;;;;;;;;;17.77;37.14;98296.78;4976463;28;942;-60
2022/04/02 12:56:18;;;;;;;;;;;;;;;16.76;42.46;98301.63;4976532;28;850;-60
2022/04/02 12:58:46;;;;;;;;;;;;;;;14.71;54.02;98341.53;4976363;28;879;-63
2022/04/02 13:01:13;;;;;;;;;;;;;;;12.70;63.63;98346.84;4976637;28;787;-68
2022/04/02 13:04:09;;;;;;;;;;;;;;;11.39;63.79;98371.00;4976338;28;1887;-67
2022/04/02 13:06:46;;;;;;;;;;;;;;;-147.50;100.00;69404.13;4956003;28;1277;-70
2022/04/02 13:09:13;;;;;;;;;;;;;;;-147.50;100.00;69404.13;4976636;28;808;-67
2022/04/02 13:11:46;;;;;;;;;;;;;;;-147.50;100.00;69404.13;4976238;28;819;-69
2022/04/02 13:14:14;;;;;;;;;;;;;;;-147.50;100.00;69404.13;4958783;28;1256;-68
2022/04/02 13:16:41;;;;;;;;;;;;;;;-147.50;100.00;69404.13;4976362;28;842;-63
2022/04/02 13:22:13;;;;;;;;;;;;;;;-147.50;100.00;69404.13;4975974;28;806;-60
2022/04/02 13:24:46;;;;;;;;;;;;;;;-147.50;100.00;69404.13;4975838;28;1895;-59
2022/04/02 13:30:28;;;;;;;;;;;;;;;-147.50;100.00;69404.13;4976144;28;610;-60
2022/04/02 13:33:14;;;;;;;;;;;;;;;-147.50;100.00;69404.13;4975863;28;886;-61
2022/04/02 13:35:44;;;;;;;;;;;;;;;-147.50;100.00;69404.13;4975810;28;799;-62
2022/04/02 13:38:30;;;;;;;;;;;;;;;-147.50;100.00;69404.13;4975940;28;851;-62
2022/04/02 13:41:01;;;;;;;;;;;;;;;-147.50;100.00;69404.13;4975807;28;1007;-62
2022/04/02 13:43:35;;;;;;;;;;;;;;;-147.50;100.00;69404.13;4975672;28;1951;-61
2022/04/02 13:46:08;;;;;;;;;;;;;;;-147.50;100.00;69404.13;4975587;28;800;-62
2022/04/02 13:48:36;;;;;;;;;;;;;;;-147.50;100.00;69404.13;4975850;28;870;-62
2022/04/02 13:51:08;;;;;;;;;;;;;;;-147.50;100.00;69404.13;4975432;28;867;-63
2022/04/02 13:53:36;;;;;;;;;;;;;;;-147.50;100.00;69404.13;4975455;28;796;-63
2022/04/02 13:56:10;;;;;;;;;;;;;;;-147.50;100.00;69404.13;4975472;28;803;-63
2022/04/02 13:58:39;;;;;;;;;;;;;;;-147.50;100.00;69404.13;4975006;28;804;-63